Arethusa — 9HJR9 — position and weather

sailwx.info

Track history (hours):
 
Tides and Currents Weather Stations Pressure Air Temp Water Temp Dewpoint Dewpoint Depression Visibility Wind Speed Wind Dir Waves Ship Positions

Arethusa

Last reported at 2014-Jul-30 04:33 UTC. Time now 2014-Jul-30 05:00 UTC.
Position N 43°58' E 010°01'.

Length 60 m; draft 3 m.

Type: Passenger vessel. MMSI: 249069000.

Date/timePositionNaut miles runAvg speedWind from/ knotsBaromVisibWave heightAir tempDewpointWater temp
2014-Jul-30 04:33N 43°58' E 010°01'7 7.2
2014-Jul-30 03:33N 43°51' E 009°57'7 7.2
2014-Jul-30 02:33N 43°45' E 009°53'9 8.5
2014-Jul-30 01:33N 43°37' E 009°50'1212.1
2014-Jul-30 00:33N 43°25' E 009°46'40 1.2
2014-Jul-28 16:33N 42°52' E 010°17'4 0.3
2014-Jul-28 02:24N 42°48' E 010°20'0 0.0
2014-Jul-28 00:18N 42°48' E 010°20'0 0.0
2014-Jul-27 22:21N 42°48' E 010°20'0 0.0
2014-Jul-27 20:04N 42°48' E 010°20'14 9.1
2014-Jul-27 18:32N 43°02' E 010°17'1110.7
2014-Jul-27 17:30N 43°13' E 010°15'1010.6
2014-Jul-27 16:33N 43°23' E 010°13'9 9.2
2014-Jul-27 15:33N 43°32' E 010°16'2 1.7
2014-Jul-27 14:32N 43°33' E 010°18'0 0.0
2014-Jul-27 13:32N 43°33' E 010°18'0 0.0
2014-Jul-27 12:14N 43°33' E 010°18'0 0.0
2014-Jul-27 11:26N 43°33' E 010°18'0 0.0
2014-Jul-27 10:32N 43°33' E 010°18'0 0.0
2014-Jul-27 09:26N 43°33' E 010°18'0 0.0
2014-Jul-27 08:32N 43°33' E 010°18'0 0.0
2014-Jul-27 07:29N 43°33' E 010°18'0 0.0
2014-Jul-27 06:32N 43°33' E 010°18'0 0.0
2014-Jul-27 05:17N 43°33' E 010°18'0 0.0
2014-Jul-27 04:32N 43°33' E 010°18'0 0.0
2014-Jul-27 03:32N 43°33' E 010°18'0 0.0
2014-Jul-27 02:32N 43°33' E 010°18'0 0.0
2014-Jul-27 01:32N 43°33' E 010°18'0 0.0
2014-Jul-27 00:32N 43°33' E 010°18'0 0.0
2014-Jul-26 23:32N 43°33' E 010°18'0 0.0
2014-Jul-26 22:29N 43°33' E 010°18'3 3.1
2014-Jul-26 21:33N 43°31' E 010°15'5 5.2
2014-Jul-26 20:33N 43°26' E 010°16'8 7.6
2014-Jul-26 19:33N 43°18' E 010°16'27 1.1
2014-Jul-25 19:18N 42°52' E 010°08'23 1.4
2014-Jul-25 02:19N 43°07' E 009°44'910.5
2014-Jul-25 01:25N 43°16' E 009°47'1011.2
2014-Jul-25 00:34N 43°26' E 009°45'1110.8
2014-Jul-24 23:34N 43°36' E 009°49'10 9.6
2014-Jul-24 22:33N 43°45' E 009°55'1010.0
2014-Jul-24 21:33N 43°55' E 009°59'8 7.1
2014-Jul-24 20:28N 44°02' E 010°02'0 0.0
2014-Jul-24 19:28N 44°02' E 010°02'0 0.0
2014-Jul-24 18:28N 44°02' E 010°02'0 0.0
2014-Jul-24 17:25N 44°02' E 010°02'0 0.0
2014-Jul-24 16:28N 44°02' E 010°02'0 0.0
2014-Jul-24 15:28N 44°02' E 010°02'0 0.0
2014-Jul-24 14:31N 44°02' E 010°02'0 0.0
2014-Jul-24 13:28N 44°02' E 010°02'0 0.0
2014-Jul-24 12:25N 44°02' E 010°02'0 0.0
2014-Jul-24 11:13N 44°02' E 010°02'0 0.0
2014-Jul-24 10:28N 44°02' E 010°02'0 0.0
2014-Jul-24 09:31N 44°02' E 010°02'0 0.0
2014-Jul-24 08:31N 44°02' E 010°02'0 0.0
2014-Jul-24 07:31N 44°02' E 010°02'0 0.0
2014-Jul-24 06:28N 44°02' E 010°02'0 0.0
2014-Jul-24 05:28N 44°02' E 010°02'5 5.7
2014-Jul-24 04:33N 44°00' E 009°55'4 4.4
2014-Jul-24 03:33N 44°03' E 009°51'0 0.0
2014-Jul-24 02:33N 44°03' E 009°51'0 0.0
2014-Jul-24 01:30N 44°03' E 009°51'0 0.0
2014-Jul-24 00:33N 44°03' E 009°51'0 0.0
2014-Jul-23 23:33N 44°03' E 009°51'0 0.0
2014-Jul-23 22:33N 44°03' E 009°51'0 0.0
2014-Jul-23 21:33N 44°03' E 009°51'0 0.0
2014-Jul-23 20:33N 44°03' E 009°51'0 0.0
2014-Jul-23 19:33N 44°03' E 009°51'0 0.0
2014-Jul-23 18:33N 44°03' E 009°51'0 0.0
2014-Jul-23 17:33N 44°03' E 009°51'0 0.0
2014-Jul-23 16:33N 44°03' E 009°51'0 0.0
2014-Jul-23 15:33N 44°03' E 009°51'0 0.0
2014-Jul-23 14:33N 44°03' E 009°51'0 0.0
2014-Jul-23 13:33N 44°03' E 009°51'0 0.0
2014-Jul-23 12:33N 44°03' E 009°51'0 0.0
2014-Jul-23 11:33N 44°03' E 009°51'0 0.0
2014-Jul-23 10:33N 44°03' E 009°51'0 0.0
2014-Jul-23 09:33N 44°03' E 009°51'0 0.0
2014-Jul-23 08:33N 44°03' E 009°51'0 0.0
2014-Jul-23 07:33N 44°03' E 009°51'0 0.0
2014-Jul-23 06:33N 44°03' E 009°51'0 0.0
2014-Jul-23 05:33N 44°03' E 009°51'0 0.0
2014-Jul-23 04:33N 44°03' E 009°51'0 0.0
2014-Jul-23 03:33N 44°03' E 009°51'0 0.0
2014-Jul-23 02:33N 44°03' E 009°51'0 0.0
2014-Jul-23 01:33N 44°03' E 009°51'0 0.0
2014-Jul-23 00:33N 44°03' E 009°51'0 0.0
2014-Jul-22 23:33N 44°03' E 009°51'0 0.0
2014-Jul-22 22:33N 44°03' E 009°51'3 3.4
2014-Jul-22 21:33N 43°60' E 009°50'9 9.0
2014-Jul-22 20:33N 44°03' E 009°38'10 9.7
2014-Jul-22 19:33N 44°10' E 009°28'1010.0
2014-Jul-22 18:33N 44°17' E 009°18'2 0.1
2014-Jul-22 04:33N 44°16' E 009°16'10 9.7
2014-Jul-22 03:33N 44°11' E 009°04'10 9.8
2014-Jul-22 02:33N 44°07' E 008°52'10 9.5
2014-Jul-22 01:33N 44°02' E 008°40'10 9.1
2014-Jul-22 00:31N 43°58' E 008°28'51 8.5
2014-Jul-21 18:32N 43°41' E 007°22'4 3.4
2014-Jul-21 17:29N 43°42' E 007°17'0 0.0
2014-Jul-21 16:23N 43°42' E 007°17'0 0.0
2014-Jul-21 15:29N 43°42' E 007°17'0 0.0
2014-Jul-21 14:29N 43°42' E 007°17'0 0.0
2014-Jul-21 13:29N 43°42' E 007°17'0 0.0
2014-Jul-21 11:29N 43°42' E 007°17'0 0.0
2014-Jul-21 10:29N 43°42' E 007°17'0 0.0
2014-Jul-21 09:29N 43°42' E 007°17'0 0.0
2014-Jul-21 08:29N 43°42' E 007°17'0 0.0
2014-Jul-21 07:29N 43°42' E 007°17'0 0.0
2014-Jul-21 06:29N 43°42' E 007°17'0 0.0
2014-Jul-21 05:23N 43°42' E 007°17'0 0.0
2014-Jul-21 04:29N 43°42' E 007°17'0 0.0
2014-Jul-21 03:29N 43°42' E 007°17'0 0.0
2014-Jul-21 02:29N 43°42' E 007°17'0 0.0
2014-Jul-21 01:23N 43°42' E 007°17'0 0.0
2014-Jul-21 00:29N 43°42' E 007°17'0 0.0
2014-Jul-20 23:29N 43°42' E 007°17'0 0.0
2014-Jul-20 22:29N 43°42' E 007°17'0 0.0
2014-Jul-20 21:29N 43°42' E 007°17'0 0.0
2014-Jul-20 20:29N 43°42' E 007°17'0 0.0
2014-Jul-20 19:23N 43°42' E 007°17'0 0.0
2014-Jul-20 18:29N 43°42' E 007°17'0 0.0
2014-Jul-20 17:29N 43°42' E 007°17'0 0.0
2014-Jul-20 16:05N 43°42' E 007°17'0 0.0
2014-Jul-20 15:29N 43°42' E 007°17'0 0.0
2014-Jul-20 14:29N 43°42' E 007°17'0 0.0
2014-Jul-20 13:29N 43°42' E 007°17'0 0.0
2014-Jul-20 12:23N 43°42' E 007°17'0 0.0
2014-Jul-20 11:23N 43°42' E 007°17'  
Track history (hours):
 
Tides and Currents Weather Stations Pressure Air Temp Water Temp Dewpoint Dewpoint Depression Visibility Wind Speed Wind Dir Waves Ship Positions

Arethusa

Last reported at 2014-Jul-30 04:33 UTC. Time now 2014-Jul-30 05:00 UTC.
Position N 43°58' E 010°01'.

Length 60 m; draft 3 m.

Type: Passenger vessel. MMSI: 249069000.

Date/timePositionNaut miles runAvg speedWind from/ knotsBaromVisibWave heightAir tempDewpointWater temp
2014-Jul-30 04:33N 43°58' E 010°01'7 7.2
2014-Jul-30 03:33N 43°51' E 009°57'7 7.2
2014-Jul-30 02:33N 43°45' E 009°53'9 8.5
2014-Jul-30 01:33N 43°37' E 009°50'1212.1
2014-Jul-30 00:33N 43°25' E 009°46'40 1.2
2014-Jul-28 16:33N 42°52' E 010°17'4 0.3
2014-Jul-28 02:24N 42°48' E 010°20'0 0.0
2014-Jul-28 00:18N 42°48' E 010°20'0 0.0
2014-Jul-27 22:21N 42°48' E 010°20'0 0.0
2014-Jul-27 20:04N 42°48' E 010°20'14 9.1
2014-Jul-27 18:32N 43°02' E 010°17'1110.7
2014-Jul-27 17:30N 43°13' E 010°15'1010.6
2014-Jul-27 16:33N 43°23' E 010°13'9 9.2
2014-Jul-27 15:33N 43°32' E 010°16'2 1.7
2014-Jul-27 14:32N 43°33' E 010°18'0 0.0
2014-Jul-27 13:32N 43°33' E 010°18'0 0.0
2014-Jul-27 12:14N 43°33' E 010°18'0 0.0
2014-Jul-27 11:26N 43°33' E 010°18'0 0.0
2014-Jul-27 10:32N 43°33' E 010°18'0 0.0
2014-Jul-27 09:26N 43°33' E 010°18'0 0.0
2014-Jul-27 08:32N 43°33' E 010°18'0 0.0
2014-Jul-27 07:29N 43°33' E 010°18'0 0.0
2014-Jul-27 06:32N 43°33' E 010°18'0 0.0
2014-Jul-27 05:17N 43°33' E 010°18'0 0.0
2014-Jul-27 04:32N 43°33' E 010°18'0 0.0
2014-Jul-27 03:32N 43°33' E 010°18'0 0.0
2014-Jul-27 02:32N 43°33' E 010°18'0 0.0
2014-Jul-27 01:32N 43°33' E 010°18'0 0.0
2014-Jul-27 00:32N 43°33' E 010°18'0 0.0
2014-Jul-26 23:32N 43°33' E 010°18'0 0.0
2014-Jul-26 22:29N 43°33' E 010°18'3 3.1
2014-Jul-26 21:33N 43°31' E 010°15'5 5.2
2014-Jul-26 20:33N 43°26' E 010°16'8 7.6
2014-Jul-26 19:33N 43°18' E 010°16'27 1.1
2014-Jul-25 19:18N 42°52' E 010°08'23 1.4
2014-Jul-25 02:19N 43°07' E 009°44'910.5
2014-Jul-25 01:25N 43°16' E 009°47'1011.2
2014-Jul-25 00:34N 43°26' E 009°45'1110.8
2014-Jul-24 23:34N 43°36' E 009°49'10 9.6
2014-Jul-24 22:33N 43°45' E 009°55'1010.0
2014-Jul-24 21:33N 43°55' E 009°59'8 7.1
2014-Jul-24 20:28N 44°02' E 010°02'0 0.0
2014-Jul-24 19:28N 44°02' E 010°02'0 0.0
2014-Jul-24 18:28N 44°02' E 010°02'0 0.0
2014-Jul-24 17:25N 44°02' E 010°02'0 0.0
2014-Jul-24 16:28N 44°02' E 010°02'0 0.0
2014-Jul-24 15:28N 44°02' E 010°02'0 0.0
2014-Jul-24 14:31N 44°02' E 010°02'0 0.0
2014-Jul-24 13:28N 44°02' E 010°02'0 0.0
2014-Jul-24 12:25N 44°02' E 010°02'0 0.0
2014-Jul-24 11:13N 44°02' E 010°02'0 0.0
2014-Jul-24 10:28N 44°02' E 010°02'0 0.0
2014-Jul-24 09:31N 44°02' E 010°02'0 0.0
2014-Jul-24 08:31N 44°02' E 010°02'0 0.0
2014-Jul-24 07:31N 44°02' E 010°02'0 0.0
2014-Jul-24 06:28N 44°02' E 010°02'0 0.0
2014-Jul-24 05:28N 44°02' E 010°02'5 5.7
2014-Jul-24 04:33N 44°00' E 009°55'4 4.4
2014-Jul-24 03:33N 44°03' E 009°51'0 0.0
2014-Jul-24 02:33N 44°03' E 009°51'0 0.0
2014-Jul-24 01:30N 44°03' E 009°51'0 0.0
2014-Jul-24 00:33N 44°03' E 009°51'0 0.0
2014-Jul-23 23:33N 44°03' E 009°51'0 0.0
2014-Jul-23 22:33N 44°03' E 009°51'0 0.0
2014-Jul-23 21:33N 44°03' E 009°51'0 0.0
2014-Jul-23 20:33N 44°03' E 009°51'0 0.0
2014-Jul-23 19:33N 44°03' E 009°51'0 0.0
2014-Jul-23 18:33N 44°03' E 009°51'0 0.0
2014-Jul-23 17:33N 44°03' E 009°51'0 0.0
2014-Jul-23 16:33N 44°03' E 009°51'0 0.0
2014-Jul-23 15:33N 44°03' E 009°51'0 0.0
2014-Jul-23 14:33N 44°03' E 009°51'0 0.0
2014-Jul-23 13:33N 44°03' E 009°51'0 0.0
2014-Jul-23 12:33N 44°03' E 009°51'0 0.0
2014-Jul-23 11:33N 44°03' E 009°51'0 0.0
2014-Jul-23 10:33N 44°03' E 009°51'0 0.0
2014-Jul-23 09:33N 44°03' E 009°51'0 0.0
2014-Jul-23 08:33N 44°03' E 009°51'0 0.0
2014-Jul-23 07:33N 44°03' E 009°51'0 0.0
2014-Jul-23 06:33N 44°03' E 009°51'0 0.0
2014-Jul-23 05:33N 44°03' E 009°51'0 0.0
2014-Jul-23 04:33N 44°03' E 009°51'0 0.0
2014-Jul-23 03:33N 44°03' E 009°51'0 0.0
2014-Jul-23 02:33N 44°03' E 009°51'0 0.0
2014-Jul-23 01:33N 44°03' E 009°51'0 0.0
2014-Jul-23 00:33N 44°03' E 009°51'0 0.0
2014-Jul-22 23:33N 44°03' E 009°51'0 0.0
2014-Jul-22 22:33N 44°03' E 009°51'3 3.4
2014-Jul-22 21:33N 43°60' E 009°50'9 9.0
2014-Jul-22 20:33N 44°03' E 009°38'10 9.7
2014-Jul-22 19:33N 44°10' E 009°28'1010.0
2014-Jul-22 18:33N 44°17' E 009°18'2 0.1
2014-Jul-22 04:33N 44°16' E 009°16'10 9.7
2014-Jul-22 03:33N 44°11' E 009°04'10 9.8
2014-Jul-22 02:33N 44°07' E 008°52'10 9.5
2014-Jul-22 01:33N 44°02' E 008°40'10 9.1
2014-Jul-22 00:31N 43°58' E 008°28'51 8.5
2014-Jul-21 18:32N 43°41' E 007°22'4 3.4
2014-Jul-21 17:29N 43°42' E 007°17'0 0.0
2014-Jul-21 16:23N 43°42' E 007°17'0 0.0
2014-Jul-21 15:29N 43°42' E 007°17'0 0.0
2014-Jul-21 14:29N 43°42' E 007°17'0 0.0
2014-Jul-21 13:29N 43°42' E 007°17'0 0.0
2014-Jul-21 11:29N 43°42' E 007°17'0 0.0
2014-Jul-21 10:29N 43°42' E 007°17'0 0.0
2014-Jul-21 09:29N 43°42' E 007°17'0 0.0
2014-Jul-21 08:29N 43°42' E 007°17'0 0.0
2014-Jul-21 07:29N 43°42' E 007°17'0 0.0
2014-Jul-21 06:29N 43°42' E 007°17'0 0.0
2014-Jul-21 05:23N 43°42' E 007°17'0 0.0
2014-Jul-21 04:29N 43°42' E 007°17'0 0.0
2014-Jul-21 03:29N 43°42' E 007°17'0 0.0
2014-Jul-21 02:29N 43°42' E 007°17'0 0.0
2014-Jul-21 01:23N 43°42' E 007°17'0 0.0
2014-Jul-21 00:29N 43°42' E 007°17'0 0.0
2014-Jul-20 23:29N 43°42' E 007°17'0 0.0
2014-Jul-20 22:29N 43°42' E 007°17'0 0.0
2014-Jul-20 21:29N 43°42' E 007°17'0 0.0
2014-Jul-20 20:29N 43°42' E 007°17'0 0.0
2014-Jul-20 19:23N 43°42' E 007°17'0 0.0
2014-Jul-20 18:29N 43°42' E 007°17'0 0.0
2014-Jul-20 17:29N 43°42' E 007°17'0 0.0
2014-Jul-20 16:05N 43°42' E 007°17'0 0.0
2014-Jul-20 15:29N 43°42' E 007°17'0 0.0
2014-Jul-20 14:29N 43°42' E 007°17'0 0.0
2014-Jul-20 13:29N 43°42' E 007°17'0 0.0
2014-Jul-20 12:23N 43°42' E 007°17'0 0.0
2014-Jul-20 11:23N 43°42' E 007°17'  

Dump ship's entire track history